Time;durP1;ratioP1;P1;durP2;ratioP2;P2;SDS_P1;SDS_P2;PMS_P1;PMS_P2;Temp;Humidity;BMP_temperature;BMP_pressure;BME280_temperature;BME280_humidity;BME280_pressure;Samples;Min_cycle;Max_cycle;Signal;HPM_P1;HPM_P2
2022/11/15 00:00:00;;;;;;;;;;;;;;;19.53;41.53;97214.63;5155181;27;19907;-35
2022/11/15 00:02:26;;;;;;;;;;;;;;;19.51;41.62;97206.81;5155274;27;20366;-34
2022/11/15 00:04:51;;;;;;;;;;;;;;;19.54;41.41;97202.34;5155496;27;19998;-34
2022/11/15 00:07:16;;;;;;;;;;;;;;;19.62;41.36;97209.06;5155111;27;19947;-34
2022/11/15 00:09:41;;;;;;;;;;;;;;;19.57;41.58;97204.19;5155074;27;20294;-34
2022/11/15 00:12:07;;;;;;;;;;;;;;;19.54;41.43;97208.63;5155108;27;19911;-34
2022/11/15 00:14:32;;;;;;;;;;;;;;;19.55;41.60;97201.88;5154963;27;19907;-34
2022/11/15 00:16:57;;;;;;;;;;;;;;;19.53;41.33;97211.88;5155272;27;19907;-34
2022/11/15 00:19:22;;;;;;;;;;;;;;;19.52;41.52;97205.59;5146371;27;20366;-35
2022/11/15 00:21:48;;;;;;;;;;;;;;;19.56;41.25;97200.66;5138381;27;19997;-34
2022/11/15 00:24:13;;;;;;;;;;;;;;;19.56;41.25;97203.41;5138272;27;19964;-34
2022/11/15 00:26:38;;;;;;;;;;;;;;;19.50;41.13;97204.53;5140790;27;19907;-34
2022/11/15 00:29:04;;;;;;;;;;;;;;;19.46;41.16;97207.41;5137829;27;19907;-34
2022/11/15 00:31:29;;;;;;;;;;;;;;;19.46;41.05;97192.91;5137903;27;19915;-34
2022/11/15 00:33:54;;;;;;;;;;;;;;;19.55;41.05;97201.88;5138249;27;19915;-35
2022/11/15 00:36:20;;;;;;;;;;;;;;;19.48;41.19;97199.47;5138174;27;19964;-34
2022/11/15 00:38:45;;;;;;;;;;;;;;;19.48;41.17;97204.97;5138143;27;19914;-35
2022/11/15 00:41:10;;;;;;;;;;;;;;;19.52;41.07;97215.84;5138246;27;20408;-35
2022/11/15 00:43:36;;;;;;;;;;;;;;;19.52;40.92;97207.59;5137594;27;19919;-34
2022/11/15 00:46:02;;;;;;;;;;;;;;;19.52;40.90;97204.84;5137946;27;20293;-34
2022/11/15 00:48:28;;;;;;;;;;;;;;;19.48;40.90;97199.47;5137660;27;19908;-36
2022/11/15 00:50:54;;;;;;;;;;;;;;;19.47;40.87;97194.44;5137689;27;19968;-34
2022/11/15 00:53:19;;;;;;;;;;;;;;;19.50;41.00;97197.03;5137440;27;20367;-35
2022/11/15 00:55:44;;;;;;;;;;;;;;;19.48;40.69;97199.47;5137506;27;19915;-34
2022/11/15 00:58:09;;;;;;;;;;;;;;;19.46;40.96;97190.91;5137256;27;19914;-34
2022/11/15 01:00:35;;;;;;;;;;;;;;;19.45;40.92;97194.88;5137431;27;19938;-34
2022/11/15 01:03:00;;;;;;;;;;;;;;;19.43;40.63;97197.34;5137323;27;19998;-34
2022/11/15 01:05:26;;;;;;;;;;;;;;;19.41;40.94;97186.03;5139024;27;19957;-35
2022/11/15 01:07:55;;;;;;;;;;;;;;;19.43;40.80;97189.09;5155830;27;19907;-34
2022/11/15 01:10:21;;;;;;;;;;;;;;;19.36;40.72;97181.19;5157141;27;19913;-34
2022/11/15 01:12:46;;;;;;;;;;;;;;;19.40;40.75;97179.03;5157723;27;20009;-34
2022/11/15 01:15:11;;;;;;;;;;;;;;;19.42;40.46;97182.06;5157978;27;19914;-34
2022/11/15 01:17:36;;;;;;;;;;;;;;;19.37;40.75;97171.72;5157717;27;19911;-34
2022/11/15 01:20:02;;;;;;;;;;;;;;;19.42;40.46;97165.56;5157758;27;19993;-34
2022/11/15 01:22:28;;;;;;;;;;;;;;;19.37;40.58;97166.97;5157598;27;19913;-34
2022/11/15 01:24:53;;;;;;;;;;;;;;;19.41;40.57;97160.56;5157667;27;19907;-35
2022/11/15 01:27:18;;;;;;;;;;;;;;;19.40;40.84;97159.03;5157659;27;19914;-36
2022/11/15 01:29:44;;;;;;;;;;;;;;;19.39;40.74;97158.25;5157520;27;19911;-34
2022/11/15 01:32:09;;;;;;;;;;;;;;;19.34;40.46;97165.16;5156597;27;20342;-37
2022/11/15 01:34:35;;;;;;;;;;;;;;;19.36;40.70;97154.44;5157003;27;19930;-36
2022/11/15 01:37:00;;;;;;;;;;;;;;;19.36;40.60;97153.69;5157516;27;19913;-34
2022/11/15 01:39:26;;;;;;;;;;;;;;;19.35;40.71;97160.41;5157265;27;19906;-34
2022/11/15 01:41:51;;;;;;;;;;;;;;;19.34;40.58;97161.63;5157299;27;19990;-34
2022/11/15 01:44:46;;;;;;;;;;;;;;;19.34;40.78;97161.63;5157164;27;19907;-35
2022/11/15 01:47:19;;;;;;;;;;;;;;;19.37;40.45;97144.22;5124044;27;19907;-35
2022/11/15 01:49:53;;;;;;;;;;;;;;;19.34;40.65;97150.63;5157149;27;19907;-34
2022/11/15 01:52:20;;;;;;;;;;;;;;;19.34;40.54;97151.41;5157094;27;19911;-34
2022/11/15 01:54:47;;;;;;;;;;;;;;;19.32;40.65;97136.59;5157378;27;19940;-34
2022/11/15 01:57:13;;;;;;;;;;;;;;;19.33;40.69;97141.63;5157006;27;20278;-34
2022/11/15 01:59:40;;;;;;;;;;;;;;;19.32;40.53;97137.34;5157161;27;19907;-35
2022/11/15 02:02:06;;;;;;;;;;;;;;;19.38;40.36;97129.22;5156993;27;20354;-34
2022/11/15 02:04:32;;;;;;;;;;;;;;;19.28;40.61;97136.78;5157111;27;19907;-34
2022/11/15 02:06:58;;;;;;;;;;;;;;;19.29;40.36;97140.25;5156842;27;20259;-34
2022/11/15 02:09:23;;;;;;;;;;;;;;;19.27;40.37;97140.75;5138444;27;19951;-34
2022/11/15 02:11:49;;;;;;;;;;;;;;;19.33;40.07;97144.38;5156582;27;19911;-34
2022/11/15 02:14:18;;;;;;;;;;;;;;;19.26;40.47;97143.97;5156949;27;19919;-34
2022/11/15 02:16:50;;;;;;;;;;;;;;;19.35;40.17;97139.16;5156591;27;19907;-34
2022/11/15 02:19:20;;;;;;;;;;;;;;;19.40;40.11;97140.53;5156542;27;19952;-35
2022/11/15 02:22:05;;;;;;;;;;;;;;;19.33;40.30;97129.88;5156632;27;19907;-34
2022/11/15 02:24:42;;;;;;;;;;;;;;;19.31;40.10;97137.81;5156216;27;19998;-36
2022/11/15 02:27:26;;;;;;;;;;;;;;;19.32;40.17;97126.34;5156557;27;19918;-34
2022/11/15 02:30:05;;;;;;;;;;;;;;;19.33;40.20;97138.13;5156348;27;20358;-34
2022/11/15 02:32:40;;;;;;;;;;;;;;;19.28;40.44;97125.78;5156239;27;20423;-34
2022/11/15 02:35:11;;;;;;;;;;;;;;;19.27;40.54;97126.25;5153444;27;19994;-35
2022/11/15 02:37:45;;;;;;;;;;;;;;;19.27;40.41;97126.25;5156191;27;19911;-34
2022/11/15 02:40:20;;;;;;;;;;;;;;;19.24;40.20;97127.16;5156261;27;19906;-35
2022/11/15 02:45:53;;;;;;;;;;;;;;;19.29;40.27;97141.03;5072162;28;20397;-34
2022/11/15 02:48:19;;;;;;;;;;;;;;;19.24;40.36;97132.66;5072126;28;19908;-33
2022/11/15 02:50:45;;;;;;;;;;;;;;;19.26;40.21;97127.47;5072314;28;19947;-34
2022/11/15 02:53:10;;;;;;;;;;;;;;;19.22;40.25;97126.88;5055239;28;19963;-36
2022/11/15 02:55:38;;;;;;;;;;;;;;;19.24;40.04;97119.69;5071877;28;20006;-34
2022/11/15 02:58:23;;;;;;;;;;;;;;;19.22;40.33;97132.38;5071970;28;20118;-34
2022/11/15 03:01:15;;;;;;;;;;;;;;;19.33;40.15;97127.09;5022100;28;20430;-34
2022/11/15 03:03:56;;;;;;;;;;;;;;;19.26;40.37;97124.72;5067048;28;19908;-32
2022/11/15 03:06:27;;;;;;;;;;;;;;;19.23;39.99;97115.41;5071895;28;19912;-32
2022/11/15 03:09:19;;;;;;;;;;;;;;;19.25;40.25;97104.72;5055016;28;19915;-32
2022/11/15 03:11:48;;;;;;;;;;;;;;;19.24;40.13;97113.41;5071994;28;19912;-32
2022/11/15 03:14:30;;;;;;;;;;;;;;;19.19;40.31;97112.06;5072168;28;20328;-32
2022/11/15 03:16:55;;;;;;;;;;;;;;;19.30;40.17;97117.81;5071942;28;19908;-32
2022/11/15 03:19:20;;;;;;;;;;;;;;;19.27;40.04;97118.75;5097292;27;19907;-32
2022/11/15 03:21:47;;;;;;;;;;;;;;;19.26;40.20;97116.47;5155788;27;19945;-33
2022/11/15 03:24:14;;;;;;;;;;;;;;;19.23;40.03;97114.66;5155504;27;20362;-33
2022/11/15 03:26:40;;;;;;;;;;;;;;;19.25;40.20;97120.44;5155547;27;20273;-33
2022/11/15 03:29:09;;;;;;;;;;;;;;;19.25;40.10;97121.22;5155539;27;19907;-33
2022/11/15 03:31:47;;;;;;;;;;;;;;;19.23;40.37;97111.91;5154735;27;20002;-32
2022/11/15 03:34:22;;;;;;;;;;;;;;;19.29;40.27;97110.00;5155543;27;19914;-32
2022/11/15 03:36:48;;;;;;;;;;;;;;;19.20;40.31;97104.56;5155620;27;19924;-32
2022/11/15 03:39:14;;;;;;;;;;;;;;;19.20;40.26;97108.09;5155743;27;20280;-33
2022/11/15 03:41:39;;;;;;;;;;;;;;;19.19;40.23;97111.28;5155508;27;19907;-32
2022/11/15 03:44:10;;;;;;;;;;;;;;;19.19;40.37;97111.28;5155433;27;19913;-32
2022/11/15 03:46:41;;;;;;;;;;;;;;;19.14;40.19;97114.69;5155185;27;19907;-32
2022/11/15 03:49:12;;;;;;;;;;;;;;;19.18;40.29;97118.03;5155417;27;19907;-32
2022/11/15 03:51:38;;;;;;;;;;;;;;;19.16;40.28;97123.25;5155363;27;19925;-32
2022/11/15 03:54:04;;;;;;;;;;;;;;;19.18;40.13;97126.28;5155429;27;20005;-32
2022/11/15 03:56:29;;;;;;;;;;;;;;;19.18;40.31;97134.53;5159391;27;19951;-32
2022/11/15 03:58:55;;;;;;;;;;;;;;;19.21;40.32;97128.09;5159719;27;19907;-32
2022/11/15 04:01:20;;;;;;;;;;;;;;;19.26;40.22;97110.97;5159370;27;19946;-32
2022/11/15 04:03:45;;;;;;;;;;;;;;;19.22;40.24;97111.13;5159205;27;19911;-33
2022/11/15 04:06:11;;;;;;;;;;;;;;;19.17;40.42;97111.00;5159140;27;19914;-32
2022/11/15 04:08:36;;;;;;;;;;;;;;;19.21;40.37;97112.38;5159393;27;19911;-32
2022/11/15 04:11:01;;;;;;;;;;;;;;;19.19;40.42;97098.31;5159179;27;19907;-33
2022/11/15 04:13:27;;;;;;;;;;;;;;;19.16;40.51;97096.53;5159067;27;19968;-32
2022/11/15 04:15:52;;;;;;;;;;;;;;;19.10;40.57;97101.13;5159178;27;19914;-32
2022/11/15 04:18:18;;;;;;;;;;;;;;;19.17;40.50;97100.00;5159063;27;20002;-32
2022/11/15 04:24:11;;;;;;;;;;;;;;;19.09;40.44;97085.84;5158768;27;19926;-32
2022/11/15 04:26:31;;;;;;;;;;;;;;;19.15;40.26;97083.22;5158809;27;19956;-33
2022/11/15 04:31:40;;;;;;;;;;;;;;;19.18;40.32;97082.28;5158693;27;19918;-33
2022/11/15 04:34:05;;;;;;;;;;;;;;;19.18;40.32;97076.78;5158850;27;19907;-32
2022/11/15 04:39:14;;;;;;;;;;;;;;;19.12;40.36;97071.19;5138166;27;19915;-33
2022/11/15 04:41:40;;;;;;;;;;;;;;;19.11;40.40;97071.66;5137733;27;19908;-32
2022/11/15 04:44:05;;;;;;;;;;;;;;;19.16;40.27;97074.53;5138060;27;20423;-32
2022/11/15 04:46:30;;;;;;;;;;;;;;;19.14;40.20;97076.97;5137579;27;19914;-33
2022/11/15 04:48:55;;;;;;;;;;;;;;;19.16;40.21;97082.00;5137693;27;19918;-32
2022/11/15 04:51:21;;;;;;;;;;;;;;;19.16;40.15;97101.25;5137521;27;19911;-32
2022/11/15 04:53:46;;;;;;;;;;;;;;;19.24;40.04;97099.66;5137670;27;19919;-32
2022/11/15 04:56:12;;;;;;;;;;;;;;;19.14;40.25;97103.72;5137574;27;19907;-34
2022/11/15 04:58:37;;;;;;;;;;;;;;;19.14;40.26;97082.47;5137666;27;19914;-33
2022/11/15 05:01:06;;;;;;;;;;;;;;;19.10;40.31;97075.63;5137545;27;19914;-32
2022/11/15 05:06:15;;;;;;;;;;;;;;;19.15;40.20;97066.75;5136266;27;20010;-32
2022/11/15 05:08:41;;;;;;;;;;;;;;;19.16;40.19;97068.25;5137330;27;20002;-32
2022/11/15 05:11:06;;;;;;;;;;;;;;;19.15;40.48;97066.75;5137100;27;19934;-32
2022/11/15 05:13:31;;;;;;;;;;;;;;;19.17;40.31;97067.00;5137247;27;19956;-32
2022/11/15 05:15:56;;;;;;;;;;;;;;;19.06;40.39;97075.00;5137468;27;19994;-32
2022/11/15 05:18:22;;;;;;;;;;;;;;;19.09;40.38;97079.59;5137144;27;20365;-33
2022/11/15 05:20:47;;;;;;;;;;;;;;;19.11;40.39;97071.66;5137017;27;19967;-32
2022/11/15 05:23:12;;;;;;;;;;;;;;;19.08;40.25;97078.06;5136944;27;19964;-32
2022/11/15 05:25:38;;;;;;;;;;;;;;;19.08;40.13;97067.06;5137010;27;19907;-32
2022/11/15 05:28:03;;;;;;;;;;;;;;;19.05;40.31;97063.25;5136932;27;19907;-32
2022/11/15 05:30:29;;;;;;;;;;;;;;;19.09;40.15;97085.84;5136900;27;20350;-32
2022/11/15 05:32:55;;;;;;;;;;;;;;;19.10;40.25;97086.63;5138251;27;20306;-33
2022/11/15 05:35:31;;;;;;;;;;;;;;;19.10;40.27;97075.63;5138921;27;19914;-32
2022/11/15 05:37:57;;;;;;;;;;;;;;;19.02;40.51;97081.47;5157305;27;19955;-33
2022/11/15 05:40:23;;;;;;;;;;;;;;;19.13;40.33;97080.19;5157570;27;19907;-32
2022/11/15 05:42:49;;;;;;;;;;;;;;;19.05;40.32;97065.25;5157674;27;19907;-32
2022/11/15 05:45:15;;;;;;;;;;;;;;;19.08;40.37;97065.09;5157471;27;20274;-32
2022/11/15 05:47:41;;;;;;;;;;;;;;;19.08;40.50;97067.06;5157111;27;19959;-32
2022/11/15 05:50:06;;;;;;;;;;;;;;;19.11;40.44;97074.38;5157482;27;19914;-32
2022/11/15 05:52:34;;;;;;;;;;;;;;;19.06;40.50;97086.00;5157048;27;19911;-32
2022/11/15 05:54:59;;;;;;;;;;;;;;;19.06;40.59;97091.50;5138639;27;19929;-32
2022/11/15 05:57:25;;;;;;;;;;;;;;;19.10;40.46;97086.63;5157222;27;20418;-32
2022/11/15 05:59:51;;;;;;;;;;;;;;;19.14;40.41;97087.97;5156939;27;19997;-33
2022/11/15 06:02:16;;;;;;;;;;;;;;;19.12;40.43;97089.66;5157019;27;19950;-32
2022/11/15 06:04:41;;;;;;;;;;;;;;;19.06;40.71;97080.50;5156742;27;19907;-32
2022/11/15 06:07:06;;;;;;;;;;;;;;;19.05;40.63;97085.25;5157030;27;20292;-32
2022/11/15 06:09:32;;;;;;;;;;;;;;;19.19;40.37;97092.81;5156810;27;20259;-32
2022/11/15 06:11:57;;;;;;;;;;;;;;;19.10;40.63;97092.88;5156785;27;19954;-32
2022/11/15 06:14:22;;;;;;;;;;;;;;;19.14;40.55;97084.47;5156621;27;20362;-33
2022/11/15 06:16:48;;;;;;;;;;;;;;;19.10;40.80;97081.88;5156539;27;20013;-32
2022/11/15 06:19:13;;;;;;;;;;;;;;;19.06;40.74;97088.75;5156324;27;19959;-33
2022/11/15 06:21:38;;;;;;;;;;;;;;;19.03;40.77;97093.22;5156561;27;19907;-32
2022/11/15 06:24:07;;;;;;;;;;;;;;;18.98;41.02;97091.09;5156409;27;20023;-32
2022/11/15 06:26:32;;;;;;;;;;;;;;;18.99;40.98;97095.38;5137701;27;19907;-32
2022/11/15 06:28:58;;;;;;;;;;;;;;;19.05;40.69;97090.00;5156508;27;19914;-32
2022/11/15 06:31:23;;;;;;;;;;;;;;;19.04;40.98;97085.75;5138320;27;19971;-32
2022/11/15 06:33:51;;;;;;;;;;;;;;;19.10;40.88;97081.13;5128874;27;19919;-32
2022/11/15 06:36:17;;;;;;;;;;;;;;;19.08;40.96;97084.31;5129007;27;19919;-34
2022/11/15 06:38:42;;;;;;;;;;;;;;;19.11;41.01;97094.41;5128701;27;20385;-32
2022/11/15 06:41:09;;;;;;;;;;;;;;;19.10;41.00;97092.13;5128707;27;19922;-31
2022/11/15 06:43:34;;;;;;;;;;;;;;;19.10;41.09;97103.09;5129356;27;19915;-32
2022/11/15 06:46:00;;;;;;;;;;;;;;;19.04;41.18;97094.72;5112108;27;19922;-32
2022/11/15 06:48:26;;;;;;;;;;;;;;;18.92;41.43;97085.47;5128388;27;20018;-32
2022/11/15 06:50:55;;;;;;;;;;;;;;;19.05;41.18;97093.50;5146699;27;20102;-32
2022/11/15 06:53:20;;;;;;;;;;;;;;;19.16;40.93;97101.25;5137368;27;19911;-32
2022/11/15 06:55:46;;;;;;;;;;;;;;;19.17;40.91;97091.75;5155957;27;19913;-32
2022/11/15 06:58:11;;;;;;;;;;;;;;;19.03;41.44;97082.22;5155892;27;19906;-32
2022/11/15 07:00:36;;;;;;;;;;;;;;;18.99;41.42;97087.91;5155940;27;20385;-33
2022/11/15 07:03:02;;;;;;;;;;;;;;;19.14;41.27;97098.22;5155755;27;19907;-32
2022/11/15 07:05:28;;;;;;;;;;;;;;;19.16;41.09;97088.28;5156035;27;19913;-32
2022/11/15 07:07:54;;;;;;;;;;;;;;;19.15;41.27;97095.00;5137154;27;20009;-32
2022/11/15 07:10:19;;;;;;;;;;;;;;;19.08;41.34;97089.81;5155801;27;20372;-32
2022/11/15 07:12:48;;;;;;;;;;;;;;;19.04;41.58;97094.00;5155695;27;19911;-32
2022/11/15 07:15:14;;;;;;;;;;;;;;;19.04;41.49;97096.75;5141423;27;19911;-32
2022/11/15 07:17:40;;;;;;;;;;;;;;;19.05;41.59;97095.47;5153563;27;19971;-34
2022/11/15 07:20:05;;;;;;;;;;;;;;;18.96;41.81;97094.31;5144820;27;19915;-32
2022/11/15 07:22:30;;;;;;;;;;;;;;;19.00;41.65;97086.66;5132749;27;20394;-32
2022/11/15 07:24:56;;;;;;;;;;;;;;;19.08;41.59;97089.81;5132632;27;20369;-32
2022/11/15 07:27:21;;;;;;;;;;;;;;;19.00;41.83;97083.91;5136515;27;19915;-32
2022/11/15 07:29:46;;;;;;;;;;;;;;;19.02;41.70;97086.97;5152673;27;19911;-33
2022/11/15 07:32:12;;;;;;;;;;;;;;;19.00;41.69;97080.41;5144882;27;19912;-32
2022/11/15 07:34:37;;;;;;;;;;;;;;;19.09;41.63;97085.09;5132692;28;20316;-32
2022/11/15 07:37:02;;;;;;;;;;;;;;;18.99;41.88;97092.63;5132628;28;19918;-32
2022/11/15 07:39:27;;;;;;;;;;;;;;;18.93;42.09;97098.00;5132852;28;19994;-32
2022/11/15 07:42:52;;;;;;;;;;;;;;;18.93;42.12;97108.22;5132902;28;19934;-32
2022/11/15 07:44:38;;;;;;;;;;;;;;;18.91;42.11;97097.72;5131117;28;19918;-32
2022/11/15 07:47:03;;;;;;;;;;;;;;;18.89;42.26;97108.41;5132770;28;19904;-32
2022/11/15 07:49:29;;;;;;;;;;;;;;;18.96;42.14;97093.56;5132358;28;20390;-32
2022/11/15 07:51:54;;;;;;;;;;;;;;;18.86;42.21;97095.59;5132614;28;19956;-32
2022/11/15 07:54:19;;;;;;;;;;;;;;;18.94;42.13;97099.50;5132647;28;19915;-32
2022/11/15 07:56:44;;;;;;;;;;;;;;;18.96;42.15;97101.81;5132696;28;19916;-32
2022/11/15 07:59:10;;;;;;;;;;;;;;;18.93;42.23;97098.00;5132515;28;20323;-33
2022/11/15 08:01:35;;;;;;;;;;;;;;;18.84;42.46;97098.03;5132115;28;19917;-32
2022/11/15 08:04:00;;;;;;;;;;;;;;;18.90;42.17;97087.94;5132567;28;19907;-33
2022/11/15 08:06:25;;;;;;;;;;;;;;;18.92;42.25;97088.22;5135498;27;20003;-32
2022/11/15 08:08:51;;;;;;;;;;;;;;;18.87;42.48;97080.63;5155156;27;19907;-33
2022/11/15 08:11:16;;;;;;;;;;;;;;;18.92;42.20;97077.22;5155072;27;19910;-32
2022/11/15 08:13:41;;;;;;;;;;;;;;;18.93;42.24;97084.25;5155292;27;19980;-32
2022/11/15 08:16:08;;;;;;;;;;;;;;;18.93;42.23;97076.00;5154998;27;19914;-32
2022/11/15 08:18:34;;;;;;;;;;;;;;;18.93;42.36;97070.50;5155038;27;20001;-32
2022/11/15 08:21:00;;;;;;;;;;;;;;;18.90;42.42;97068.72;5155002;27;19942;-32
2022/11/15 08:23:25;;;;;;;;;;;;;;;18.92;42.29;97071.72;5154846;27;19915;-33
2022/11/15 08:25:50;;;;;;;;;;;;;;;18.94;42.44;97063.78;5154999;27;19985;-32
2022/11/15 08:28:17;;;;;;;;;;;;;;;18.90;42.51;97060.47;5154863;27;20013;-33
2022/11/15 08:30:42;;;;;;;;;;;;;;;17.73;45.27;97062.28;5155163;27;19994;-33
2022/11/15 08:33:11;;;;;;;;;;;;;;;16.70;48.21;97061.78;5154702;27;20013;-33
2022/11/15 08:35:37;;;;;;;;;;;;;;;17.05;47.63;97067.09;5144684;27;19918;-34
2022/11/15 08:38:03;;;;;;;;;;;;;;;17.73;45.63;97062.28;5134109;28;20279;-33
2022/11/15 08:40:29;;;;;;;;;;;;;;;18.13;44.69;97065.59;5135112;27;19907;-33
2022/11/15 08:42:54;;;;;;;;;;;;;;;18.24;44.50;97065.09;5137450;27;19914;-35
2022/11/15 08:45:19;;;;;;;;;;;;;;;18.43;43.88;97072.06;5137922;27;19918;-35
2022/11/15 08:47:46;;;;;;;;;;;;;;;18.64;43.27;97070.34;5137186;27;19908;-33
2022/11/15 08:50:11;;;;;;;;;;;;;;;18.79;42.96;97059.47;5137624;27;19908;-33
2022/11/15 08:52:37;;;;;;;;;;;;;;;18.78;42.97;97061.44;5137082;27;19911;-35
2022/11/15 08:55:02;;;;;;;;;;;;;;;18.79;42.97;97062.19;5137298;27;19986;-37
2022/11/15 08:57:30;;;;;;;;;;;;;;;18.81;42.80;97067.97;5137568;27;19908;-34
2022/11/15 08:59:56;;;;;;;;;;;;;;;18.82;42.90;97067.50;5137774;27;19911;-36
2022/11/15 09:02:21;;;;;;;;;;;;;;;18.86;42.67;97065.38;5137603;27;20060;-34
2022/11/15 09:04:46;;;;;;;;;;;;;;;18.87;42.58;97055.13;5137365;27;19907;-34
2022/11/15 09:07:13;;;;;;;;;;;;;;;18.82;42.68;97064.75;5137486;27;19960;-34
2022/11/15 09:09:38;;;;;;;;;;;;;;;18.85;42.73;97061.09;5137378;27;19908;-34
2022/11/15 09:12:05;;;;;;;;;;;;;;;18.85;42.71;97058.34;5137293;27;19911;-36
2022/11/15 09:14:30;;;;;;;;;;;;;;;18.86;42.80;97053.59;5137095;27;19907;-33
2022/11/15 09:16:55;;;;;;;;;;;;;;;18.86;42.76;97068.09;5137166;27;19956;-34
2022/11/15 09:19:21;;;;;;;;;;;;;;;18.89;42.55;97047.19;5150181;27;19915;-33
2022/11/15 09:21:46;;;;;;;;;;;;;;;18.85;42.75;97055.59;5157835;27;19910;-35
2022/11/15 09:24:11;;;;;;;;;;;;;;;18.81;42.77;97054.22;5157652;27;19958;-35
2022/11/15 09:26:36;;;;;;;;;;;;;;;18.84;42.96;97048.56;5157875;27;19911;-34
2022/11/15 09:29:02;;;;;;;;;;;;;;;18.88;42.66;97060.16;5157570;27;19914;-33
2022/11/15 09:31:29;;;;;;;;;;;;;;;18.86;42.74;97054.38;5157618;27;19907;-33
2022/11/15 09:33:54;;;;;;;;;;;;;;;18.88;42.63;97053.91;5157690;27;19906;-37
2022/11/15 09:36:20;;;;;;;;;;;;;;;18.88;42.81;97053.91;5157742;27;20013;-34
2022/11/15 09:38:45;;;;;;;;;;;;;;;18.88;42.80;97045.66;5157520;27;19907;-33
2022/11/15 09:41:13;;;;;;;;;;;;;;;18.84;42.97;97053.31;5157463;27;19907;-33
2022/11/15 09:43:39;;;;;;;;;;;;;;;18.89;42.79;97055.44;5157358;27;19997;-33
2022/11/15 09:46:24;;;;;;;;;;;;;;;18.88;42.70;97051.91;5157200;27;19992;-33
2022/11/15 09:48:54;;;;;;;;;;;;;;;18.86;42.82;97046.13;5114884;27;19928;-33
2022/11/15 09:51:46;;;;;;;;;;;;;;;18.88;42.72;97057.41;5157645;27;19910;-35
2022/11/15 09:54:25;;;;;;;;;;;;;;;18.87;43.09;97035.88;5152807;27;19964;-33
2022/11/15 09:56:51;;;;;;;;;;;;;;;18.85;43.06;97039.09;5157358;27;19907;-35
2022/11/15 09:59:28;;;;;;;;;;;;;;;18.83;43.25;97041.56;5157262;27;19911;-33
2022/11/15 10:01:56;;;;;;;;;;;;;;;18.85;42.96;97030.09;5156948;27;19906;-33
2022/11/15 10:04:22;;;;;;;;;;;;;;;18.83;43.09;97033.31;5155039;27;20390;-33
2022/11/15 10:07:10;;;;;;;;;;;;;;;18.91;42.87;97020.00;5154762;27;19939;-34
2022/11/15 10:09:43;;;;;;;;;;;;;;;18.82;43.05;97018.03;5156851;27;20347;-34
2022/11/15 10:12:10;;;;;;;;;;;;;;;18.83;43.00;97016.81;5156756;27;19922;-33
2022/11/15 10:14:36;;;;;;;;;;;;;;;18.85;42.97;97008.13;5156744;27;19931;-35
2022/11/15 10:17:19;;;;;;;;;;;;;;;18.87;42.97;96992.69;5157101;27;19906;-34
2022/11/15 10:19:54;;;;;;;;;;;;;;;18.81;43.04;96991.03;5156493;27;19949;-34
2022/11/15 10:22:24;;;;;;;;;;;;;;;18.86;43.00;96982.91;5156631;27;20281;-33
2022/11/15 10:24:50;;;;;;;;;;;;;;;18.88;42.98;96990.69;5156290;27;19922;-34
2022/11/15 10:27:16;;;;;;;;;;;;;;;18.90;42.88;96986.25;5156790;27;20252;-33
2022/11/15 10:29:44;;;;;;;;;;;;;;;18.92;42.87;96983.00;5156198;27;19907;-33
2022/11/15 10:32:11;;;;;;;;;;;;;;;18.86;42.99;96979.41;5155655;27;20347;-34
2022/11/15 10:34:36;;;;;;;;;;;;;;;18.89;43.06;96973.75;5156382;27;19906;-34
2022/11/15 10:37:02;;;;;;;;;;;;;;;18.87;43.06;96964.44;5155401;27;19913;-33
2022/11/15 10:39:27;;;;;;;;;;;;;;;18.84;43.08;96966.13;5152900;27;20266;-33
2022/11/15 10:41:53;;;;;;;;;;;;;;;18.86;43.09;96960.94;5156638;27;19911;-33
2022/11/15 10:44:31;;;;;;;;;;;;;;;18.89;42.94;96956.50;5156341;27;19907;-33
2022/11/15 10:46:56;;;;;;;;;;;;;;;18.88;43.18;96954.97;5156120;27;19911;-34
2022/11/15 10:49:24;;;;;;;;;;;;;;;18.90;43.16;96947.78;5156080;27;19937;-33
2022/11/15 10:51:57;;;;;;;;;;;;;;;18.89;43.22;96946.25;5156040;27;19915;-33
2022/11/15 10:54:28;;;;;;;;;;;;;;;18.89;43.16;96943.50;5156057;27;19914;-35
2022/11/15 10:56:55;;;;;;;;;;;;;;;18.91;43.23;96937.56;5155952;27;19907;-33
2022/11/15 10:59:25;;;;;;;;;;;;;;;18.93;42.99;96933.06;5155901;27;19907;-33
2022/11/15 11:01:51;;;;;;;;;;;;;;;18.88;43.21;96922.00;5155841;27;19986;-33
2022/11/15 11:04:16;;;;;;;;;;;;;;;18.88;43.39;96925.50;5154873;27;20389;-34
2022/11/15 11:06:52;;;;;;;;;;;;;;;18.89;43.24;96924.28;5155710;27;20361;-33
2022/11/15 11:09:20;;;;;;;;;;;;;;;18.89;43.32;96912.53;5155951;27;20312;-33
2022/11/15 11:11:46;;;;;;;;;;;;;;;18.89;43.47;96905.03;5155685;27;20420;-34
2022/11/15 11:14:13;;;;;;;;;;;;;;;18.87;43.49;96917.72;5155917;27;19907;-33
2022/11/15 11:16:44;;;;;;;;;;;;;;;18.88;43.54;96914.50;5155845;27;19997;-35
2022/11/15 11:19:28;;;;;;;;;;;;;;;18.89;43.50;96912.53;5155742;27;20319;-34
2022/11/15 11:22:02;;;;;;;;;;;;;;;18.85;43.65;96911.94;5155635;27;19907;-33
2022/11/15 11:24:34;;;;;;;;;;;;;;;18.86;43.60;96913.44;5155417;27;20429;-33
2022/11/15 11:27:08;;;;;;;;;;;;;;;18.89;43.50;96912.53;5155094;27;19907;-33
2022/11/15 11:29:39;;;;;;;;;;;;;;;18.88;43.67;96894.50;5155410;27;19929;-33
2022/11/15 11:32:27;;;;;;;;;;;;;;;18.89;43.62;96896.03;5155766;27;19911;-33
2022/11/15 11:34:52;;;;;;;;;;;;;;;18.89;43.78;96891.28;5155411;27;19907;-33
2022/11/15 11:37:23;;;;;;;;;;;;;;;18.89;43.76;96894.03;5155373;27;19907;-33
2022/11/15 11:40:07;;;;;;;;;;;;;;;18.93;43.70;96885.59;5155365;27;20054;-34
2022/11/15 11:42:32;;;;;;;;;;;;;;;18.92;43.64;96884.84;5155409;27;19907;-33
2022/11/15 11:45:13;;;;;;;;;;;;;;;18.92;43.82;96878.56;5155347;27;19953;-33
2022/11/15 11:48:07;;;;;;;;;;;;;;;18.93;43.81;96875.38;5155451;27;19911;-33
2022/11/15 11:50:36;;;;;;;;;;;;;;;18.91;44.02;96883.34;5132815;27;19907;-33
2022/11/15 11:53:11;;;;;;;;;;;;;;;18.91;43.93;96880.59;5155172;27;19911;-33
2022/11/15 11:55:38;;;;;;;;;;;;;;;18.87;44.26;96860.78;5151601;27;20045;-33
2022/11/15 11:58:21;;;;;;;;;;;;;;;18.86;44.26;96864.75;5144116;27;19958;-34
2022/11/15 12:00:51;;;;;;;;;;;;;;;18.89;44.48;96857.56;5132487;28;20411;-34
2022/11/15 12:03:35;;;;;;;;;;;;;;;18.90;44.47;96859.84;5149551;27;19911;-37
2022/11/15 12:06:14;;;;;;;;;;;;;;;18.93;44.48;96855.38;5153278;27;20294;-33
2022/11/15 12:08:49;;;;;;;;;;;;;;;18.93;44.36;96850.63;5153120;27;19952;-34
2022/11/15 12:11:17;;;;;;;;;;;;;;;18.90;44.68;96848.09;5153143;27;19988;-34
2022/11/15 12:13:43;;;;;;;;;;;;;;;18.89;44.62;96846.56;5150882;27;19922;-34
2022/11/15 12:16:16;;;;;;;;;;;;;;;18.92;44.62;96845.59;5134203;27;19916;-34
2022/11/15 12:18:44;;;;;;;;;;;;;;;18.92;44.65;96840.88;5136341;27;19956;-33
2022/11/15 12:21:24;;;;;;;;;;;;;;;18.93;44.70;96831.38;5136015;27;19956;-35
2022/11/15 12:23:52;;;;;;;;;;;;;;;18.90;44.93;96826.84;5136130;27;19925;-35
2022/11/15 12:26:23;;;;;;;;;;;;;;;18.92;44.92;96829.88;5136291;27;19911;-33
2022/11/15 12:28:57;;;;;;;;;;;;;;;18.86;45.17;96842.75;5136270;27;20386;-33
2022/11/15 12:31:35;;;;;;;;;;;;;;;18.89;45.20;96828.09;5134978;27;19911;-33
2022/11/15 12:34:05;;;;;;;;;;;;;;;18.93;45.13;96834.13;5146891;27;19911;-34
2022/11/15 12:36:35;;;;;;;;;;;;;;;18.88;45.34;96834.06;5158755;27;19907;-34
2022/11/15 12:39:08;;;;;;;;;;;;;;;18.89;45.46;96825.34;5158273;27;19994;-33
2022/11/15 12:41:37;;;;;;;;;;;;;;;18.90;45.56;96812.34;5153168;27;19915;-33
2022/11/15 12:44:04;;;;;;;;;;;;;;;18.91;45.55;96805.63;5137017;27;19907;-33
2022/11/15 12:46:29;;;;;;;;;;;;;;;18.90;45.64;96804.88;5137890;27;19960;-33
2022/11/15 12:48:56;;;;;;;;;;;;;;;18.83;45.84;96804.47;5138000;27;19907;-33
2022/11/15 12:51:22;;;;;;;;;;;;;;;18.88;46.05;96804.56;5137840;27;19918;-33
2022/11/15 12:53:48;;;;;;;;;;;;;;;18.84;46.06;96798.50;5137458;27;20335;-34
2022/11/15 12:56:16;;;;;;;;;;;;;;;18.90;45.90;96807.63;5137902;27;19946;-33
2022/11/15 12:59:05;;;;;;;;;;;;;;;18.85;46.14;96802.78;5137755;27;19907;-35
2022/11/15 13:01:30;;;;;;;;;;;;;;;18.77;46.62;96806.38;5141450;27;19911;-34
2022/11/15 13:04:14;;;;;;;;;;;;;;;18.83;46.30;96790.72;5150855;27;19918;-34
2022/11/15 13:06:47;;;;;;;;;;;;;;;18.86;46.42;96781.53;5118825;27;19911;-33